Carlton, TX (76436)

3:14 AM CDT on July 14, 2014 (GMT -0500)
Hamilton Municipal (KMNZ) Elev 1299 ft | 31.67 °N, 98.15 °W | Change Station

Current weather conditions updated 19 minutes ago

Clear
Clear
74 °F
Feels Like 74 °F
N
14
Wind Variable Wind from SSW

Today is forecast to be nearly the same temperature as yesterday. Cloudy with showers late, maybe some thunder tonight.

Today
High -- | Low -- °F
--% Chance of Precip.
Yesterday
High -- | Low -- °F
Precip. -- in
6:36 AM 8:39 PM
Waning Gibbous, 95% visible
Pressure 30.04 in
Visibility 10.0 miles
Clouds Clear
Dew Point 63 °F
Humidity 68%
Rainfall 0.00 in
Snow Depth Not available.
UV 0 out of 12
Pollen 4.40 out of 12
Air Quality Not available.
Flu Activity Sporadic
METAR KMNZ 140755Z AUTO 21012KT 10SM CLR 24/17 A3004 RMK AO2 T02350173

More Conditions Fewer Conditions

Pressure 30.04 in
Visibility 10.0 miles
Clouds Clear
Dew Point 63 °F
Humidity 68%
Rainfall 0.00 in
Snow Depth Not available.
UV 0 out of 12
Pollen 4.40 out of 12
Air Quality Not available.
Flu Activity Sporadic
METAR KMNZ 140755Z AUTO 21012KT 10SM CLR 24/17 A3004 RMK AO2 T02350173

More Conditions Fewer Conditions

10-Day Weather Forecast

Almanac

Astronomy

Jul. 14, 2014 Rise Set
Actual Time 6:36 AM CDT 8:39 PM CDT
Civil Twilight 6:09 AM CDT 9:07 PM CDT
Nautical Twilight 5:35 AM CDT 9:40 PM CDT
Astronomical Twilight 4:59 AM CDT 10:16 PM CDT
Moon 10:24 PM CDT 9:09 AM CDT
Length of Visible Light 14h 58m
Length of Day
14h 02m
Tomorrow will be 0m 57s shorter.
Waning Gibbous, 95% of the Moon is Illuminated
Today
Waning Gibbous
Jul 18
Last Quarter
Jul 26
New
Aug 3
First Quarter
Aug 10
Full

Today's Extremes

State Highs State Lows

Community

WunderPhotos

Upload Photos

1,733,582 photos uploaded!

Nearby

Snow Depth

Station Depth Elevation
No new snow has been reported.

Earthquake Activity

City Distance Mag. Time & Date
No recent earthquake activity has been reported nearby.
Minimum magnitude displayed is 2.5.

Coastal Water Temperatures

Place Temperature
No Stations Reporting

Nearby Weather Stations

Station Location Temp. Heat Index Dew Point Humidity Wind Precip. Elev Updated Type
W5DNT, Hamilton, TX 73.6 °F 77 °F 57 °F 57% ESE  at  0.0 mph - / hr 1217 ft 3:10 AM CDT Normal
AB5BX, Pottsville, TX 78.4 °F 80 °F 62 °F 57% SSW  at  5.3 mph - / hr 1414 ft 3:02 AM CDT Normal
Olam Edible Nuts, Dublin, TX 77.0 °F 79 °F 63 °F 62% South  at  2.7 mph - / hr 1424 ft 2:59 AM CDT Normal
Stephenville, Stephenville, TX 77.2 °F 79 °F 63 °F 61% North  at  0.0 mph 0.00 in / hr 1329 ft 3:14 AM CDT Rapid Fire
Peaceable Kingdom, Stephenville, TX 78.5 °F 80 °F 65 °F 63% SE  at  0.0 mph 0.00 in / hr 1390 ft 3:14 AM CDT Rapid Fire
Chalk Mountain, Glen Rose, TX 80.8 °F 83 °F 66 °F 60% SSW  at  11.0 mph 0.00 in / hr 981 ft 3:10 AM CDT Normal

Show More Stations Show Fewer Stations